Armona, California
Current Conditions -  °F | °C
As of 12:53 AM on Monday 20 Oct 2014 (Local Time) from KHJO Reporting Station
Clear Clear  
Wind Chill: 60°   Ceiling: Unl
Heat Index: 60°   Visibility: 7mi
Dew Point: 51°   Wind: 3mph
Humidity: 72%   Direction: 50°NE
Pressure: 29.88"   Gusts: NA
Location:  36.32°N, 119.71°W
Report Text: KHJO 200753Z AUTO 05003KT 7SM CLR 16/11 A2988 RMK AO2 SLP118 T01560106 402780100
Loading
Personal Weather Stations






























Interactive Weather Map
Tropical Storm Tracking
New forecast layout! Learn more

10-Day Weather Forecast

Advertisements
Track Severe Weather on mobile